createdAt,value
2022-10-19T00:01:09.593Z,5.50
2022-10-19T00:03:37.872Z,5.20
2022-10-19T00:06:18.810Z,4.77
2022-10-19T00:08:46.081Z,8.23
2022-10-19T00:11:13.456Z,4.27
2022-10-19T00:13:40.874Z,5.30
2022-10-19T00:16:14.715Z,5.20
2022-10-19T00:18:46.024Z,5.50
2022-10-19T00:21:17.087Z,4.90
2022-10-19T00:23:45.279Z,5.37
2022-10-19T00:26:13.157Z,4.97
2022-10-19T00:28:40.227Z,5.00
2022-10-19T00:31:11.727Z,6.73
2022-10-19T00:33:39.319Z,3.90
2022-10-19T00:36:14.126Z,5.10
2022-10-19T00:38:42.370Z,4.67
2022-10-19T00:41:09.709Z,4.30
2022-10-19T00:44:04.368Z,9.73
2022-10-19T00:46:36.630Z,4.80
2022-10-19T00:49:17.643Z,3.10
2022-10-19T00:51:50.400Z,4.10
2022-10-19T00:54:18.641Z,4.57
2022-10-19T00:56:49.267Z,3.80
2022-10-19T00:59:20.578Z,4.47
2022-10-19T01:01:49.277Z,6.97
2022-10-19T01:04:16.583Z,3.37
2022-10-19T01:06:43.940Z,3.60
2022-10-19T01:09:11.032Z,5.43
2022-10-19T01:12:04.412Z,4.23
2022-10-19T01:15:15.727Z,4.20
2022-10-19T01:17:58.272Z,4.40
2022-10-19T01:20:33.803Z,5.77
2022-10-19T01:23:45.391Z,7.00
2022-10-19T01:26:41.539Z,4.00
2022-10-19T01:29:32.629Z,7.80
2022-10-19T01:32:27.283Z,6.10
2022-10-19T01:35:10.295Z,7.63
2022-10-19T01:37:50.814Z,6.67
2022-10-19T01:40:52.733Z,6.17
2022-10-19T01:44:01.353Z,5.40
2022-10-19T01:46:43.696Z,7.97
2022-10-19T01:49:29.277Z,7.17
2022-10-19T01:52:03.988Z,7.50
2022-10-19T01:54:38.748Z,5.50
2022-10-19T01:57:09.352Z,5.77
2022-10-19T01:59:38.793Z,6.57
2022-10-19T02:02:08.900Z,5.10
2022-10-19T02:04:38.204Z,7.20
2022-10-19T02:07:08.260Z,5.20
2022-10-19T02:09:35.942Z,5.30
2022-10-19T02:12:09.397Z,7.33
2022-10-19T02:14:51.779Z,5.30
2022-10-19T02:17:25.358Z,7.30
2022-10-19T02:19:54.896Z,4.37
2022-10-19T02:22:22.375Z,5.77
2022-10-19T02:24:49.512Z,5.83
2022-10-19T02:27:17.316Z,5.77
2022-10-19T02:29:44.931Z,9.40
2022-10-19T02:32:12.441Z,4.70
2022-10-19T02:34:40.195Z,8.40
2022-10-19T02:37:07.367Z,6.93
2022-10-19T02:39:34.667Z,15.93
2022-10-19T02:42:17.111Z,16.80
2022-10-19T02:45:02.559Z,16.20
2022-10-19T02:47:42.802Z,15.17
2022-10-19T02:50:11.762Z,11.13
2022-10-19T02:52:40.619Z,21.77
2022-10-19T02:55:09.380Z,14.00
2022-10-19T02:57:37.401Z,14.17
2022-10-19T03:00:07.637Z,16.10
2022-10-19T03:02:35.077Z,19.60
2022-10-19T03:05:02.797Z,14.00
2022-10-19T03:07:30.079Z,14.50
2022-10-19T03:09:57.193Z,17.80
2022-10-19T03:12:24.120Z,17.97
2022-10-19T03:14:51.121Z,13.77
2022-10-19T03:17:18.150Z,17.60
2022-10-19T03:19:45.356Z,15.63
2022-10-19T03:22:15.085Z,19.67
2022-10-19T03:24:42.121Z,15.60
2022-10-19T03:27:09.628Z,16.30
2022-10-19T03:29:36.559Z,21.70
2022-10-19T03:32:04.270Z,20.53
2022-10-19T03:34:31.234Z,14.73
2022-10-19T03:36:59.388Z,16.20
2022-10-19T03:39:26.606Z,18.13
2022-10-19T03:41:53.790Z,17.20
2022-10-19T03:44:20.710Z,20.80
2022-10-19T03:46:47.978Z,18.47
2022-10-19T03:49:15.041Z,21.37
2022-10-19T03:51:42.418Z,17.83
2022-10-19T03:54:15.619Z,17.73
2022-10-19T03:56:43.647Z,16.43
2022-10-19T03:59:15.842Z,19.03
2022-10-19T04:01:45.855Z,18.63
2022-10-19T04:04:19.397Z,20.17
2022-10-19T04:06:50.171Z,16.70
2022-10-19T04:09:21.007Z,14.03
2022-10-19T04:11:48.830Z,16.97
2022-10-19T04:14:31.607Z,17.20
2022-10-19T04:17:06.489Z,15.07
2022-10-19T04:19:33.473Z,16.63
2022-10-19T04:22:00.681Z,16.83
2022-10-19T04:24:27.785Z,16.53
2022-10-19T04:26:56.594Z,15.17
2022-10-19T04:29:29.606Z,17.40
2022-10-19T04:31:58.591Z,19.27
2022-10-19T04:34:25.592Z,19.00
2022-10-19T04:36:53.933Z,13.70
2022-10-19T04:39:20.913Z,12.90
2022-10-19T04:41:48.019Z,17.97
2022-10-19T04:44:15.593Z,16.60
2022-10-19T04:46:42.992Z,14.50
2022-10-19T04:49:09.987Z,16.53
2022-10-19T04:51:37.099Z,17.30
2022-10-19T04:54:04.727Z,15.50
2022-10-19T04:56:32.608Z,14.00
2022-10-19T04:59:01.248Z,18.37
2022-10-19T05:01:31.168Z,20.23
2022-10-19T05:04:01.366Z,14.77
2022-10-19T05:06:30.787Z,16.53
2022-10-19T05:08:58.438Z,13.73
2022-10-19T05:11:26.479Z,17.17
2022-10-19T05:13:53.466Z,12.40
2022-10-19T05:16:22.679Z,18.07
2022-10-19T05:18:52.190Z,18.93
2022-10-19T05:21:21.809Z,18.87
2022-10-19T05:23:53.148Z,20.30
2022-10-19T05:26:23.344Z,20.83
2022-10-19T05:29:04.683Z,16.70
2022-10-19T05:31:33.824Z,13.50
2022-10-19T05:34:01.505Z,16.40
2022-10-19T05:36:38.041Z,16.13
2022-10-19T05:39:17.509Z,15.87
2022-10-19T05:41:46.359Z,17.07
2022-10-19T05:44:20.407Z,14.73
2022-10-19T05:46:48.942Z,18.70
2022-10-19T05:49:18.779Z,13.73
2022-10-19T05:51:45.899Z,16.83
2022-10-19T05:54:14.208Z,14.70
2022-10-19T05:56:42.556Z,15.70
2022-10-19T05:59:14.436Z,16.60
2022-10-19T06:01:41.479Z,18.33
2022-10-19T06:04:08.879Z,20.30
2022-10-19T06:06:35.957Z,23.73
2022-10-19T06:09:03.776Z,20.17
2022-10-19T06:11:35.120Z,18.33
2022-10-19T06:14:06.888Z,20.97
2022-10-19T06:16:35.192Z,18.57
2022-10-19T06:19:02.597Z,16.70
2022-10-19T06:21:31.764Z,17.50
2022-10-19T06:24:03.084Z,18.40
2022-10-19T06:26:32.028Z,16.83
2022-10-19T06:29:00.802Z,31.60
2022-10-19T06:31:33.212Z,16.70
2022-10-19T06:34:01.551Z,27.77
2022-10-19T06:36:30.807Z,18.80
2022-10-19T06:38:59.881Z,17.87
2022-10-19T06:41:27.821Z,16.70
2022-10-19T06:43:56.051Z,16.60
2022-10-19T06:46:25.417Z,15.07
2022-10-19T06:48:58.604Z,14.10
2022-10-19T06:51:27.936Z,17.83
2022-10-19T06:53:57.220Z,15.57
2022-10-19T06:56:25.839Z,18.30
2022-10-19T06:58:53.714Z,16.97
2022-10-19T07:01:21.204Z,15.70
2022-10-19T07:03:50.046Z,14.97
2022-10-19T07:06:17.154Z,14.30
2022-10-19T07:08:44.497Z,16.63
2022-10-19T07:11:16.929Z,18.57
2022-10-19T07:13:44.300Z,14.23
2022-10-19T07:16:19.515Z,22.40
2022-10-19T07:18:51.555Z,16.10
2022-10-19T07:21:21.711Z,18.10
2022-10-19T07:23:49.427Z,19.20
2022-10-19T07:26:22.218Z,21.83
2022-10-19T07:28:50.136Z,15.00
2022-10-19T07:31:20.682Z,16.60
2022-10-19T07:33:55.514Z,16.67
2022-10-19T07:36:23.620Z,17.50
2022-10-19T07:38:51.145Z,14.40
2022-10-19T07:41:21.887Z,14.80
2022-10-19T07:43:50.485Z,13.90
2022-10-19T07:46:21.476Z,15.43
2022-10-19T07:48:49.073Z,15.97
2022-10-19T07:51:18.715Z,12.50
2022-10-19T07:53:46.660Z,17.53
2022-10-19T07:56:26.256Z,13.70
2022-10-19T07:58:56.644Z,14.80
2022-10-19T08:01:27.811Z,15.17
2022-10-19T08:06:44.142Z,14.73
2022-10-19T08:09:22.801Z,15.93
2022-10-19T08:11:58.673Z,13.50
2022-10-19T08:14:26.200Z,12.80
2022-10-19T08:16:53.104Z,13.30
2022-10-19T08:19:20.429Z,12.30
2022-10-19T08:21:47.536Z,15.57
2022-10-19T08:24:17.886Z,13.37
2022-10-19T08:26:45.197Z,12.53
2022-10-19T08:29:15.856Z,14.03
2022-10-19T08:31:45.217Z,14.40
2022-10-19T08:34:14.794Z,13.07
2022-10-19T08:39:14.634Z,12.60
2022-10-19T08:45:09.351Z,14.33
2022-10-19T08:47:58.992Z,12.87
2022-10-19T08:50:40.601Z,15.20
2022-10-19T08:53:19.355Z,11.67
2022-10-19T08:56:26.870Z,16.63
2022-10-19T08:59:19.655Z,16.23
2022-10-19T09:01:57.034Z,17.13
2022-10-19T09:04:42.444Z,12.60
2022-10-19T09:07:31.096Z,12.07
2022-10-19T09:10:15.944Z,15.37
2022-10-19T09:12:58.425Z,11.10
2022-10-19T09:15:45.798Z,15.50
2022-10-19T09:18:22.295Z,13.63
2022-10-19T09:20:56.047Z,12.93
2022-10-19T09:23:32.095Z,12.10
2022-10-19T09:25:59.061Z,14.50
2022-10-19T09:28:56.050Z,14.03
2022-10-19T09:31:46.159Z,16.50
2022-10-19T09:34:26.834Z,17.60
2022-10-19T09:36:59.426Z,13.00
2022-10-19T09:39:29.697Z,17.33
2022-10-19T09:42:33.858Z,15.00
2022-10-19T09:45:16.536Z,12.80
2022-10-19T09:47:48.240Z,15.40
2022-10-19T09:50:27.198Z,13.40
2022-10-19T09:52:58.519Z,14.73
2022-10-19T09:55:39.313Z,15.67
2022-10-19T09:58:21.012Z,14.50
2022-10-19T10:00:56.773Z,15.33
2022-10-19T10:03:40.780Z,15.80
2022-10-19T10:06:15.005Z,15.93
2022-10-19T10:08:58.016Z,12.77
2022-10-19T10:11:38.231Z,11.87
2022-10-19T10:14:17.237Z,13.60
2022-10-19T10:16:44.343Z,15.40
2022-10-19T10:19:17.043Z,13.37
2022-10-19T10:21:57.903Z,14.70
2022-10-19T10:24:31.349Z,13.27
2022-10-19T10:27:05.602Z,13.93
2022-10-19T10:29:39.001Z,12.30
2022-10-19T10:32:21.265Z,12.93
2022-10-19T10:35:01.850Z,10.37
2022-10-19T10:37:44.489Z,14.23
2022-10-19T10:40:31.553Z,13.13
2022-10-19T10:43:17.530Z,15.00
2022-10-19T10:45:48.747Z,13.67
2022-10-19T10:48:32.821Z,12.00
2022-10-19T10:51:01.997Z,10.47
2022-10-19T10:53:45.090Z,11.73
2022-10-19T10:56:29.805Z,13.90
2022-10-19T10:59:04.227Z,11.17
2022-10-19T11:01:41.587Z,13.80
2022-10-19T11:04:19.926Z,13.97
2022-10-19T11:06:57.027Z,13.07
2022-10-19T11:09:38.263Z,14.93
2022-10-19T11:12:11.295Z,11.47
2022-10-19T11:14:51.140Z,11.97
2022-10-19T11:17:33.165Z,10.73
2022-10-19T11:20:19.048Z,9.80
2022-10-19T11:23:12.793Z,12.17
2022-10-19T11:26:04.411Z,13.00
2022-10-19T11:29:06.434Z,15.03
2022-10-19T11:31:33.584Z,15.47
2022-10-19T11:34:06.453Z,14.17
2022-10-19T11:37:02.459Z,12.83
2022-10-19T11:39:51.708Z,12.67
2022-10-19T11:45:47.482Z,13.70
2022-10-19T11:48:43.740Z,13.03
2022-10-19T11:51:37.194Z,13.90
2022-10-19T11:54:44.936Z,15.40
2022-10-19T11:57:17.969Z,11.73
2022-10-19T12:00:37.662Z,13.27
2022-10-19T12:03:27.778Z,11.57
2022-10-19T12:06:29.360Z,12.70
2022-10-19T12:09:38.527Z,13.27
2022-10-19T12:12:30.587Z,12.87
2022-10-19T12:15:30.482Z,14.53
2022-10-19T12:18:06.885Z,10.97
2022-10-19T12:20:54.433Z,14.50
2022-10-19T12:23:34.236Z,13.90
2022-10-19T12:26:09.259Z,12.67
2022-10-19T12:28:41.787Z,11.13
2022-10-19T12:31:10.929Z,11.60
2022-10-19T12:34:34.842Z,14.97
2022-10-19T12:37:25.469Z,10.67
2022-10-19T12:39:59.194Z,11.90
2022-10-19T12:43:14.440Z,14.20
2022-10-19T12:46:24.251Z,14.13
2022-10-19T12:51:55.827Z,12.37
2022-10-19T12:54:29.083Z,13.40
2022-10-19T12:57:00.220Z,15.07
2022-10-19T12:59:34.469Z,14.83
2022-10-19T13:02:05.763Z,12.23
2022-10-19T13:04:37.855Z,11.60
2022-10-19T13:07:10.891Z,13.23
2022-10-19T13:09:42.157Z,16.50
2022-10-19T13:12:21.699Z,15.70
2022-10-19T13:14:56.409Z,13.97
2022-10-19T13:17:38.247Z,14.10
2022-10-19T13:20:14.825Z,15.23
2022-10-19T13:23:01.630Z,15.53
2022-10-19T13:25:33.037Z,15.30
2022-10-19T13:28:15.240Z,15.70
2022-10-19T13:30:42.303Z,15.27
2022-10-19T13:33:27.735Z,14.90
2022-10-19T13:36:00.828Z,12.83
2022-10-19T13:38:53.148Z,13.03
2022-10-19T13:41:25.844Z,13.03
2022-10-19T13:44:01.693Z,11.63
2022-10-19T13:46:31.309Z,13.43
2022-10-19T13:49:19.046Z,11.80
2022-10-19T13:51:51.978Z,11.37
2022-10-19T13:54:42.076Z,12.37
2022-10-19T13:57:17.675Z,11.63
2022-10-19T14:00:11.784Z,14.27
2022-10-19T14:02:58.668Z,13.47
2022-10-19T14:09:18.823Z,15.30
2022-10-19T14:11:51.932Z,12.80
2022-10-19T14:14:24.997Z,15.37
2022-10-19T14:17:05.577Z,13.87
2022-10-19T14:19:46.762Z,15.80
2022-10-19T14:22:40.835Z,15.23
2022-10-19T14:25:21.210Z,14.73
2022-10-19T14:28:06.748Z,16.17
2022-10-19T14:30:36.366Z,15.50
2022-10-19T14:33:10.775Z,15.30
2022-10-19T14:35:41.257Z,16.90
2022-10-19T14:38:26.478Z,14.57
2022-10-19T14:40:53.644Z,14.07
2022-10-19T14:43:31.275Z,16.37
2022-10-19T14:46:15.066Z,13.17
2022-10-19T14:48:51.165Z,15.00
2022-10-19T14:51:46.253Z,15.57
2022-10-19T14:54:29.086Z,15.10
2022-10-19T14:57:13.224Z,13.57
2022-10-19T14:59:50.753Z,15.67
2022-10-19T15:02:44.405Z,14.50
2022-10-19T15:05:26.392Z,15.20
2022-10-19T15:07:54.776Z,14.53
2022-10-19T15:10:30.314Z,15.83
2022-10-19T15:13:06.585Z,14.30
2022-10-19T15:15:36.020Z,13.57
2022-10-19T15:18:06.277Z,13.53
2022-10-19T15:20:49.083Z,15.77
2022-10-19T15:23:38.066Z,12.27
2022-10-19T15:26:24.564Z,16.67
2022-10-19T15:28:52.827Z,13.10
2022-10-19T15:31:29.188Z,16.73
2022-10-19T15:33:59.291Z,17.63
2022-10-19T15:36:28.547Z,13.87
2022-10-19T15:39:06.337Z,13.30
2022-10-19T15:41:45.774Z,18.03
2022-10-19T15:44:42.853Z,14.63
2022-10-19T15:47:16.251Z,15.67
2022-10-19T15:49:43.369Z,13.20
2022-10-19T15:52:22.363Z,15.20
2022-10-19T15:54:51.806Z,17.20
2022-10-19T15:57:35.558Z,19.83
2022-10-19T16:00:16.419Z,14.27
2022-10-19T16:02:44.056Z,15.63
2022-10-19T16:05:11.530Z,14.37
2022-10-19T16:07:40.959Z,14.83
2022-10-19T16:10:21.931Z,16.43
2022-10-19T16:12:49.348Z,17.60
2022-10-19T16:15:23.863Z,16.37
2022-10-19T16:17:55.576Z,14.10
2022-10-19T16:20:25.149Z,12.50
2022-10-19T16:22:52.223Z,13.80
2022-10-19T16:25:20.088Z,18.27
2022-10-19T16:27:47.333Z,11.87
2022-10-19T16:30:14.647Z,16.00
2022-10-19T16:35:10.083Z,16.50
2022-10-19T16:37:37.570Z,17.97
2022-10-19T16:40:05.618Z,14.23
2022-10-19T16:42:34.822Z,13.50
2022-10-19T16:45:02.157Z,12.97
2022-10-19T16:47:29.136Z,12.10
2022-10-19T16:50:00.353Z,14.10
2022-10-19T16:52:28.952Z,12.10
2022-10-19T16:54:56.621Z,12.57
2022-10-19T16:57:23.723Z,13.10
2022-10-19T17:02:26.479Z,10.87
2022-10-19T17:04:53.359Z,9.83
2022-10-19T17:07:20.337Z,14.70
2022-10-19T17:09:49.783Z,13.43
2022-10-19T17:12:19.483Z,15.13
2022-10-19T17:14:46.423Z,13.43
2022-10-19T17:17:13.545Z,11.50
2022-10-19T17:19:40.618Z,11.83
2022-10-19T17:22:07.918Z,12.00
2022-10-19T17:24:35.107Z,13.87
2022-10-19T17:27:03.366Z,11.30
2022-10-19T17:29:31.247Z,11.63
2022-10-19T17:31:58.700Z,11.77
2022-10-19T17:34:25.977Z,13.47
2022-10-19T17:36:52.983Z,12.70
2022-10-19T17:39:27.222Z,9.77
2022-10-19T17:42:01.652Z,14.20
2022-10-19T17:44:30.608Z,13.60
2022-10-19T17:46:58.206Z,13.83
2022-10-19T17:49:25.327Z,12.70
2022-10-19T17:51:56.150Z,17.30
2022-10-19T17:54:23.210Z,13.93
2022-10-19T17:56:50.212Z,11.77
2022-10-19T17:59:17.272Z,12.20
2022-10-19T18:01:45.462Z,12.13
2022-10-19T18:04:12.403Z,13.07
2022-10-19T18:06:39.522Z,13.50
2022-10-19T18:09:10.565Z,15.40
2022-10-19T18:11:42.726Z,12.03
2022-10-19T18:14:11.979Z,13.80
2022-10-19T18:16:44.565Z,18.20
2022-10-19T18:19:14.544Z,12.63
2022-10-19T18:21:44.344Z,11.30
2022-10-19T18:24:16.843Z,11.53
2022-10-19T18:26:43.968Z,12.03
2022-10-19T18:29:16.610Z,11.93
2022-10-19T18:31:43.875Z,11.20
2022-10-19T18:34:16.013Z,10.43
2022-10-19T18:36:43.832Z,14.27
2022-10-19T18:39:13.088Z,12.13
2022-10-19T18:41:41.121Z,15.23
2022-10-19T18:44:11.413Z,13.93
2022-10-19T18:46:38.554Z,13.93
2022-10-19T18:49:08.261Z,12.10
2022-10-19T18:51:36.077Z,11.13
2022-10-19T18:54:03.193Z,14.90
2022-10-19T18:56:30.227Z,13.00
2022-10-19T18:58:57.472Z,13.53
2022-10-19T19:01:27.627Z,14.40
2022-10-19T19:03:58.047Z,12.67
2022-10-19T19:06:33.085Z,10.63
2022-10-19T19:09:01.923Z,13.27
2022-10-19T19:11:35.929Z,13.47
2022-10-19T19:14:20.948Z,18.80
2022-10-19T19:16:48.330Z,14.83
2022-10-19T19:19:17.984Z,14.10
2022-10-19T19:21:45.238Z,11.67
2022-10-19T19:24:16.337Z,13.37
2022-10-19T19:26:49.477Z,15.80
2022-10-19T19:29:18.092Z,11.33
2022-10-19T19:31:45.532Z,12.17
2022-10-19T19:34:12.580Z,12.83
2022-10-19T19:36:48.088Z,12.53
2022-10-19T19:39:19.346Z,15.00
2022-10-19T19:41:47.809Z,17.80
2022-10-19T19:44:14.880Z,12.67
2022-10-19T19:46:41.861Z,13.20
2022-10-19T19:49:09.241Z,12.07
2022-10-19T19:51:36.487Z,12.17
2022-10-19T19:54:04.323Z,11.33
2022-10-19T19:56:32.015Z,11.23
2022-10-19T19:59:03.086Z,12.13
2022-10-19T20:01:30.601Z,13.07
2022-10-19T20:03:59.611Z,11.80
2022-10-19T20:06:26.590Z,10.87
2022-10-19T20:08:55.236Z,14.03
2022-10-19T20:11:24.472Z,16.07
2022-10-19T20:13:51.696Z,13.63
2022-10-19T20:16:26.537Z,12.83
2022-10-19T20:19:12.985Z,12.67
2022-10-19T20:21:40.900Z,11.23
2022-10-19T20:24:08.259Z,13.37
2022-10-19T20:26:35.845Z,12.53
2022-10-19T20:29:04.742Z,14.13
2022-10-19T20:31:33.546Z,12.57
2022-10-19T20:34:00.688Z,12.37
2022-10-19T20:36:27.863Z,11.37
2022-10-19T20:38:57.537Z,10.40
2022-10-19T20:41:28.207Z,14.10
2022-10-19T20:43:56.206Z,13.00
2022-10-19T20:46:27.500Z,13.47
2022-10-19T20:48:59.504Z,9.50
2022-10-19T20:51:31.908Z,11.40
2022-10-19T20:54:01.912Z,15.43
2022-10-19T20:56:34.573Z,12.70
2022-10-19T20:59:08.689Z,11.90
2022-10-19T21:01:38.387Z,9.23
2022-10-19T21:04:08.853Z,11.20
2022-10-19T21:06:40.223Z,11.30
2022-10-19T21:09:08.274Z,12.20
2022-10-19T21:11:38.897Z,10.63
2022-10-19T21:14:13.883Z,9.67
2022-10-19T21:16:41.417Z,9.87
2022-10-19T21:19:20.873Z,8.70
2022-10-19T21:21:52.546Z,9.13
2022-10-19T21:24:27.052Z,10.70
2022-10-19T21:26:54.388Z,11.00
2022-10-19T21:29:21.596Z,11.73
2022-10-19T21:31:52.478Z,10.17
2022-10-19T21:34:26.540Z,12.20
2022-10-19T21:36:54.872Z,11.37
2022-10-19T21:39:22.554Z,19.70
2022-10-19T21:41:50.761Z,12.00
2022-10-19T21:44:18.946Z,10.77
2022-10-19T21:46:47.960Z,12.10
2022-10-19T21:49:15.818Z,12.37
2022-10-19T21:51:47.513Z,12.17
2022-10-19T21:54:18.679Z,13.30
2022-10-19T21:56:47.081Z,12.93
2022-10-19T21:59:15.507Z,11.70
2022-10-19T22:01:43.015Z,11.57
2022-10-19T22:04:15.228Z,12.17
2022-10-19T22:06:43.329Z,10.37
2022-10-19T22:09:16.847Z,11.00
2022-10-19T22:11:44.237Z,10.77
2022-10-19T22:14:13.992Z,10.83
2022-10-19T22:16:42.328Z,11.83
2022-10-19T22:19:10.123Z,12.00
2022-10-19T22:24:14.778Z,14.33
2022-10-19T22:26:50.613Z,14.13
2022-10-19T22:29:17.955Z,10.83
2022-10-19T22:31:45.236Z,12.40
2022-10-19T22:34:17.672Z,13.07
2022-10-19T22:36:45.666Z,9.03
2022-10-19T22:39:14.103Z,9.60
2022-10-19T22:41:41.426Z,9.20
2022-10-19T22:44:08.472Z,14.70
2022-10-19T22:46:35.564Z,12.60
2022-10-19T22:49:02.667Z,10.47
2022-10-19T22:51:30.107Z,14.13
2022-10-19T22:53:57.114Z,13.77
2022-10-19T22:56:24.156Z,13.87
2022-10-19T22:58:51.246Z,13.67
2022-10-19T23:01:18.657Z,19.10
2022-10-19T23:03:45.716Z,14.90
2022-10-19T23:06:15.662Z,15.40
2022-10-19T23:08:44.031Z,15.73
2022-10-19T23:11:11.864Z,12.37
2022-10-19T23:13:39.460Z,15.23
2022-10-19T23:16:07.325Z,11.13
2022-10-19T23:18:36.637Z,21.60
2022-10-19T23:21:07.824Z,16.50
2022-10-19T23:23:35.924Z,10.53
2022-10-19T23:26:09.397Z,14.50
2022-10-19T23:28:38.713Z,11.77
2022-10-19T23:31:24.748Z,10.90
2022-10-19T23:33:53.811Z,9.87
2022-10-19T23:36:27.911Z,16.30
2022-10-19T23:38:56.970Z,14.03
2022-10-19T23:41:24.258Z,11.80
2022-10-19T23:43:51.573Z,13.67
2022-10-19T23:46:19.033Z,12.40
2022-10-19T23:48:46.059Z,12.07
2022-10-19T23:51:16.177Z,10.27
2022-10-19T23:53:47.203Z,11.23
2022-10-19T23:56:20.871Z,11.53
2022-10-19T23:58:48.900Z,11.43
